Spangdahlem Air Base ETAD

Flugplatz Daten

Name: Spangdahlem Air Base

Ident: ETAD

Lat: 49,97269821

Long: 6,692500114

Platzhöhe: 1197 ft

IataCode: SPM

City: Trier

Homepage: http://www.spangdahlem.af.mil/

Metar

2021/10/25 23:11
ETAD 252311Z AUTO 24007KT 9999 OVC016 09/09 M RMK AO2 SLPNO $

Taf

2021/10/25 20:07
TAF ETAD 252000Z 2520/2702 22007KT 9999 OVC007 QNH3013INS
BECMG 2600/2601 23007KT 5000 BR OVC005 QNH3013INS
BECMG 2603/2604 23006KT 3200 BR OVC005 QNH3014INS
BECMG 2609/2610 24010G15KT 8000 BR BKN015 OVC020 QNH3020INS
BECMG 2614/2615 24006KT 9999 NSW BKN015 OVC025 QNH3021INS
BECMG 2621/2622 23005KT 8000 BR BKN008 QNH3026INS
BECMG 2700/2701 22004KT 5000 BR OVC005 QNH3027INS TX13/2613Z TN09/2603Z LAST NO
AMDS AFT 2520 NEXT 2604
Gewünschte Webcam nicht vorhanden? Dann fügen Sie eine hinzu. Sie wird dann so schnell wie möglich freigeschaltet
Url: Title: